sensor_id;sensor_type;location;lat;lon;timestamp;P1;durP1;ratioP1;P2;durP2;ratioP2
14907;SDS011;7545;52.092;7.006;2022-09-29T00:00:48;4.80;;;4.30;;
14907;SDS011;7545;52.092;7.006;2022-09-29T00:03:16;5.87;;;5.27;;
14907;SDS011;7545;52.092;7.006;2022-09-29T00:05:46;6.60;;;4.53;;
14907;SDS011;7545;52.092;7.006;2022-09-29T00:08:13;5.40;;;4.90;;
14907;SDS011;7545;52.092;7.006;2022-09-29T00:10:39;4.57;;;4.17;;
14907;SDS011;7545;52.092;7.006;2022-09-29T00:13:05;5.20;;;4.70;;
14907;SDS011;7545;52.092;7.006;2022-09-29T00:15:31;5.93;;;5.33;;
14907;SDS011;7545;52.092;7.006;2022-09-29T00:17:56;7.25;;;4.75;;
14907;SDS011;7545;52.092;7.006;2022-09-29T00:20:22;4.80;;;4.40;;
14907;SDS011;7545;52.092;7.006;2022-09-29T00:22:48;6.05;;;5.10;;
14907;SDS011;7545;52.092;7.006;2022-09-29T00:25:15;5.43;;;4.90;;
14907;SDS011;7545;52.092;7.006;2022-09-29T00:27:41;8.38;;;5.00;;
14907;SDS011;7545;52.092;7.006;2022-09-29T00:30:06;6.32;;;5.72;;
14907;SDS011;7545;52.092;7.006;2022-09-29T00:32:32;6.67;;;5.53;;
14907;SDS011;7545;52.092;7.006;2022-09-29T00:34:58;5.75;;;5.03;;
14907;SDS011;7545;52.092;7.006;2022-09-29T00:37:24;6.45;;;5.13;;
14907;SDS011;7545;52.092;7.006;2022-09-29T00:39:50;6.65;;;5.95;;
14907;SDS011;7545;52.092;7.006;2022-09-29T00:42:19;7.13;;;5.80;;
14907;SDS011;7545;52.092;7.006;2022-09-29T00:47:19;9.17;;;6.47;;
14907;SDS011;7545;52.092;7.006;2022-09-29T00:54:57;6.75;;;5.93;;
14907;SDS011;7545;52.092;7.006;2022-09-29T00:57:41;8.63;;;6.95;;
14907;SDS011;7545;52.092;7.006;2022-09-29T01:00:14;9.07;;;7.38;;
14907;SDS011;7545;52.092;7.006;2022-09-29T01:02:58;8.30;;;6.40;;
14907;SDS011;7545;52.092;7.006;2022-09-29T01:05:31;7.03;;;6.07;;
14907;SDS011;7545;52.092;7.006;2022-09-29T01:08:02;8.23;;;5.93;;
14907;SDS011;7545;52.092;7.006;2022-09-29T01:10:39;9.80;;;6.55;;
14907;SDS011;7545;52.092;7.006;2022-09-29T01:13:05;10.63;;;7.03;;
14907;SDS011;7545;52.092;7.006;2022-09-29T01:15:31;6.93;;;6.22;;
14907;SDS011;7545;52.092;7.006;2022-09-29T01:17:57;7.90;;;6.57;;
14907;SDS011;7545;52.092;7.006;2022-09-29T01:20:23;7.68;;;6.45;;
14907;SDS011;7545;52.092;7.006;2022-09-29T01:31:00;9.73;;;7.87;;
14907;SDS011;7545;52.092;7.006;2022-09-29T01:33:53;10.57;;;7.15;;
14907;SDS011;7545;52.092;7.006;2022-09-29T01:36:31;8.45;;;7.50;;
14907;SDS011;7545;52.092;7.006;2022-09-29T01:41:54;9.90;;;7.50;;
14907;SDS011;7545;52.092;7.006;2022-09-29T01:44:35;9.57;;;7.85;;
14907;SDS011;7545;52.092;7.006;2022-09-29T01:47:13;9.97;;;7.27;;
14907;SDS011;7545;52.092;7.006;2022-09-29T01:50:05;8.83;;;7.77;;
14907;SDS011;7545;52.092;7.006;2022-09-29T01:52:38;10.93;;;8.47;;
14907;SDS011;7545;52.092;7.006;2022-09-29T01:55:16;11.27;;;8.53;;
14907;SDS011;7545;52.092;7.006;2022-09-29T01:57:45;10.18;;;8.02;;
14907;SDS011;7545;52.092;7.006;2022-09-29T02:00:19;9.57;;;7.17;;
14907;SDS011;7545;52.092;7.006;2022-09-29T02:05:39;9.10;;;7.77;;
14907;SDS011;7545;52.092;7.006;2022-09-29T02:11:03;9.15;;;7.95;;
14907;SDS011;7545;52.092;7.006;2022-09-29T02:13:32;9.60;;;7.68;;
14907;SDS011;7545;52.092;7.006;2022-09-29T02:16:14;8.13;;;7.33;;
14907;SDS011;7545;52.092;7.006;2022-09-29T02:18:44;9.20;;;7.50;;
14907;SDS011;7545;52.092;7.006;2022-09-29T02:21:16;11.38;;;7.80;;
14907;SDS011;7545;52.092;7.006;2022-09-29T02:23:41;8.97;;;8.03;;
14907;SDS011;7545;52.092;7.006;2022-09-29T02:26:07;9.43;;;7.40;;
14907;SDS011;7545;52.092;7.006;2022-09-29T02:28:35;8.20;;;7.23;;
14907;SDS011;7545;52.092;7.006;2022-09-29T02:31:01;10.27;;;8.47;;
14907;SDS011;7545;52.092;7.006;2022-09-29T02:33:27;9.00;;;7.53;;
14907;SDS011;7545;52.092;7.006;2022-09-29T02:38:47;8.43;;;7.07;;
14907;SDS011;7545;52.092;7.006;2022-09-29T02:41:27;8.97;;;7.10;;
14907;SDS011;7545;52.092;7.006;2022-09-29T02:55:25;9.43;;;7.30;;
14907;SDS011;7545;52.092;7.006;2022-09-29T03:00:44;10.70;;;6.80;;
14907;SDS011;7545;52.092;7.006;2022-09-29T03:03:11;9.80;;;7.32;;
14907;SDS011;7545;52.092;7.006;2022-09-29T03:05:36;6.80;;;5.88;;
14907;SDS011;7545;52.092;7.006;2022-09-29T03:08:02;7.45;;;6.63;;
14907;SDS011;7545;52.092;7.006;2022-09-29T03:10:28;8.35;;;7.10;;
14907;SDS011;7545;52.092;7.006;2022-09-29T03:12:53;9.30;;;6.83;;
14907;SDS011;7545;52.092;7.006;2022-09-29T03:15:19;8.57;;;7.47;;
14907;SDS011;7545;52.092;7.006;2022-09-29T03:17:45;8.37;;;6.63;;
14907;SDS011;7545;52.092;7.006;2022-09-29T03:20:11;7.80;;;6.60;;
14907;SDS011;7545;52.092;7.006;2022-09-29T03:22:36;8.05;;;6.80;;
14907;SDS011;7545;52.092;7.006;2022-09-29T03:25:05;8.43;;;6.87;;
14907;SDS011;7545;52.092;7.006;2022-09-29T03:27:31;7.37;;;6.23;;
14907;SDS011;7545;52.092;7.006;2022-09-29T03:29:57;8.63;;;6.57;;
14907;SDS011;7545;52.092;7.006;2022-09-29T03:32:23;7.50;;;6.23;;
14907;SDS011;7545;52.092;7.006;2022-09-29T03:34:49;8.50;;;6.80;;
14907;SDS011;7545;52.092;7.006;2022-09-29T03:37:14;8.57;;;6.90;;
14907;SDS011;7545;52.092;7.006;2022-09-29T03:39:40;8.20;;;6.63;;
14907;SDS011;7545;52.092;7.006;2022-09-29T03:42:06;7.90;;;6.70;;
14907;SDS011;7545;52.092;7.006;2022-09-29T03:44:31;7.17;;;6.33;;
14907;SDS011;7545;52.092;7.006;2022-09-29T03:46:57;7.78;;;6.65;;
14907;SDS011;7545;52.092;7.006;2022-09-29T03:49:23;8.70;;;6.20;;
14907;SDS011;7545;52.092;7.006;2022-09-29T03:51:48;7.47;;;6.37;;
14907;SDS011;7545;52.092;7.006;2022-09-29T03:54:14;7.80;;;6.20;;
14907;SDS011;7545;52.092;7.006;2022-09-29T03:56:39;8.27;;;6.07;;
14907;SDS011;7545;52.092;7.006;2022-09-29T03:59:05;7.97;;;7.13;;
14907;SDS011;7545;52.092;7.006;2022-09-29T04:01:34;7.70;;;6.90;;
14907;SDS011;7545;52.092;7.006;2022-09-29T04:04:02;7.67;;;6.03;;
14907;SDS011;7545;52.092;7.006;2022-09-29T04:06:28;8.23;;;6.53;;
14907;SDS011;7545;52.092;7.006;2022-09-29T04:08:53;8.53;;;7.30;;
14907;SDS011;7545;52.092;7.006;2022-09-29T04:11:19;9.33;;;6.40;;
14907;SDS011;7545;52.092;7.006;2022-09-29T04:13:44;9.17;;;6.27;;
14907;SDS011;7545;52.092;7.006;2022-09-29T04:16:10;8.17;;;6.90;;
14907;SDS011;7545;52.092;7.006;2022-09-29T04:18:36;13.23;;;7.63;;
14907;SDS011;7545;52.092;7.006;2022-09-29T04:21:05;8.37;;;7.27;;
14907;SDS011;7545;52.092;7.006;2022-09-29T04:23:32;8.87;;;7.53;;
14907;SDS011;7545;52.092;7.006;2022-09-29T04:25:58;9.17;;;6.93;;
14907;SDS011;7545;52.092;7.006;2022-09-29T04:28:25;11.60;;;8.20;;
14907;SDS011;7545;52.092;7.006;2022-09-29T04:30:51;9.70;;;8.10;;
14907;SDS011;7545;52.092;7.006;2022-09-29T04:33:16;9.70;;;8.20;;
14907;SDS011;7545;52.092;7.006;2022-09-29T04:35:42;9.60;;;7.73;;
14907;SDS011;7545;52.092;7.006;2022-09-29T04:38:08;10.23;;;7.63;;
14907;SDS011;7545;52.092;7.006;2022-09-29T04:40:34;8.17;;;7.33;;
14907;SDS011;7545;52.092;7.006;2022-09-29T04:43:00;8.63;;;7.73;;
14907;SDS011;7545;52.092;7.006;2022-09-29T04:45:26;9.00;;;7.70;;
14907;SDS011;7545;52.092;7.006;2022-09-29T04:47:52;9.90;;;7.40;;
14907;SDS011;7545;52.092;7.006;2022-09-29T04:50:18;12.30;;;9.07;;
14907;SDS011;7545;52.092;7.006;2022-09-29T04:52:43;10.30;;;8.10;;
14907;SDS011;7545;52.092;7.006;2022-09-29T04:55:09;15.47;;;8.00;;
14907;SDS011;7545;52.092;7.006;2022-09-29T04:57:36;8.67;;;7.77;;
14907;SDS011;7545;52.092;7.006;2022-09-29T05:00:06;10.20;;;8.03;;
14907;SDS011;7545;52.092;7.006;2022-09-29T05:02:33;10.80;;;7.37;;
14907;SDS011;7545;52.092;7.006;2022-09-29T05:04:59;10.23;;;8.00;;
14907;SDS011;7545;52.092;7.006;2022-09-29T05:07:25;8.87;;;7.73;;
14907;SDS011;7545;52.092;7.006;2022-09-29T05:09:51;9.77;;;7.73;;
14907;SDS011;7545;52.092;7.006;2022-09-29T05:12:17;11.53;;;7.87;;
14907;SDS011;7545;52.092;7.006;2022-09-29T05:14:42;11.70;;;8.03;;
14907;SDS011;7545;52.092;7.006;2022-09-29T05:17:08;12.60;;;8.23;;
14907;SDS011;7545;52.092;7.006;2022-09-29T05:19:33;8.00;;;6.53;;
14907;SDS011;7545;52.092;7.006;2022-09-29T05:21:59;9.33;;;7.83;;
14907;SDS011;7545;52.092;7.006;2022-09-29T05:24:25;11.80;;;7.63;;
14907;SDS011;7545;52.092;7.006;2022-09-29T05:26:51;9.33;;;8.30;;
14907;SDS011;7545;52.092;7.006;2022-09-29T05:29:17;9.57;;;8.17;;
14907;SDS011;7545;52.092;7.006;2022-09-29T05:31:43;9.83;;;7.93;;
14907;SDS011;7545;52.092;7.006;2022-09-29T05:34:09;8.80;;;7.80;;
14907;SDS011;7545;52.092;7.006;2022-09-29T05:36:35;8.57;;;6.77;;
14907;SDS011;7545;52.092;7.006;2022-09-29T05:39:00;9.13;;;8.00;;
14907;SDS011;7545;52.092;7.006;2022-09-29T05:41:26;9.43;;;7.43;;
14907;SDS011;7545;52.092;7.006;2022-09-29T05:43:52;11.60;;;7.73;;
14907;SDS011;7545;52.092;7.006;2022-09-29T05:46:19;10.40;;;7.77;;
14907;SDS011;7545;52.092;7.006;2022-09-29T05:48:46;11.47;;;7.40;;
14907;SDS011;7545;52.092;7.006;2022-09-29T05:51:13;9.33;;;7.63;;
14907;SDS011;7545;52.092;7.006;2022-09-29T05:53:41;10.00;;;7.63;;
14907;SDS011;7545;52.092;7.006;2022-09-29T05:56:08;11.23;;;7.97;;
14907;SDS011;7545;52.092;7.006;2022-09-29T05:58:36;11.47;;;8.07;;
14907;SDS011;7545;52.092;7.006;2022-09-29T06:01:06;10.30;;;8.10;;
14907;SDS011;7545;52.092;7.006;2022-09-29T06:03:33;11.70;;;8.57;;
14907;SDS011;7545;52.092;7.006;2022-09-29T06:06:09;9.27;;;7.67;;
14907;SDS011;7545;52.092;7.006;2022-09-29T06:08:40;11.73;;;9.13;;
14907;SDS011;7545;52.092;7.006;2022-09-29T06:11:07;10.50;;;8.10;;
14907;SDS011;7545;52.092;7.006;2022-09-29T06:13:40;15.90;;;9.27;;
14907;SDS011;7545;52.092;7.006;2022-09-29T06:16:07;12.50;;;9.00;;
14907;SDS011;7545;52.092;7.006;2022-09-29T06:18:33;10.90;;;8.70;;
14907;SDS011;7545;52.092;7.006;2022-09-29T06:21:00;9.53;;;8.43;;
14907;SDS011;7545;52.092;7.006;2022-09-29T06:23:28;13.67;;;8.60;;
14907;SDS011;7545;52.092;7.006;2022-09-29T06:25:55;10.63;;;9.27;;
14907;SDS011;7545;52.092;7.006;2022-09-29T06:28:21;10.20;;;8.13;;
14907;SDS011;7545;52.092;7.006;2022-09-29T06:30:47;14.90;;;9.10;;
14907;SDS011;7545;52.092;7.006;2022-09-29T06:33:13;11.03;;;8.40;;
14907;SDS011;7545;52.092;7.006;2022-09-29T06:35:38;11.90;;;8.97;;
14907;SDS011;7545;52.092;7.006;2022-09-29T06:38:28;13.93;;;9.87;;
14907;SDS011;7545;52.092;7.006;2022-09-29T06:40:53;12.00;;;10.00;;
14907;SDS011;7545;52.092;7.006;2022-09-29T06:43:19;13.83;;;10.30;;
14907;SDS011;7545;52.092;7.006;2022-09-29T06:45:44;12.80;;;8.77;;
14907;SDS011;7545;52.092;7.006;2022-09-29T06:48:10;12.60;;;9.60;;
14907;SDS011;7545;52.092;7.006;2022-09-29T06:50:35;15.50;;;9.33;;
14907;SDS011;7545;52.092;7.006;2022-09-29T06:53:01;11.07;;;9.43;;
14907;SDS011;7545;52.092;7.006;2022-09-29T06:55:26;10.57;;;8.70;;
14907;SDS011;7545;52.092;7.006;2022-09-29T06:57:53;14.67;;;9.27;;
14907;SDS011;7545;52.092;7.006;2022-09-29T07:00:18;11.83;;;8.90;;
14907;SDS011;7545;52.092;7.006;2022-09-29T07:02:44;13.00;;;9.43;;
14907;SDS011;7545;52.092;7.006;2022-09-29T07:05:10;12.40;;;9.43;;
14907;SDS011;7545;52.092;7.006;2022-09-29T07:07:36;12.23;;;9.17;;
14907;SDS011;7545;52.092;7.006;2022-09-29T07:10:02;14.30;;;9.40;;
14907;SDS011;7545;52.092;7.006;2022-09-29T07:12:28;11.20;;;9.70;;
14907;SDS011;7545;52.092;7.006;2022-09-29T07:14:54;11.97;;;9.40;;
14907;SDS011;7545;52.092;7.006;2022-09-29T07:17:19;14.73;;;9.13;;
14907;SDS011;7545;52.092;7.006;2022-09-29T07:19:45;15.00;;;9.80;;
14907;SDS011;7545;52.092;7.006;2022-09-29T07:22:11;11.77;;;9.03;;
14907;SDS011;7545;52.092;7.006;2022-09-29T07:24:36;12.70;;;9.93;;
14907;SDS011;7545;52.092;7.006;2022-09-29T07:27:02;13.13;;;9.37;;
14907;SDS011;7545;52.092;7.006;2022-09-29T07:29:27;15.70;;;9.17;;
14907;SDS011;7545;52.092;7.006;2022-09-29T07:31:56;12.93;;;10.03;;
14907;SDS011;7545;52.092;7.006;2022-09-29T07:34:23;11.87;;;9.30;;
14907;SDS011;7545;52.092;7.006;2022-09-29T07:36:49;10.33;;;8.93;;
14907;SDS011;7545;52.092;7.006;2022-09-29T07:39:15;12.43;;;9.63;;
14907;SDS011;7545;52.092;7.006;2022-09-29T07:41:41;12.27;;;10.70;;
14907;SDS011;7545;52.092;7.006;2022-09-29T07:44:06;12.33;;;9.13;;
14907;SDS011;7545;52.092;7.006;2022-09-29T07:46:32;13.17;;;9.77;;
14907;SDS011;7545;52.092;7.006;2022-09-29T07:48:58;14.40;;;10.30;;
14907;SDS011;7545;52.092;7.006;2022-09-29T07:51:24;12.90;;;10.30;;
14907;SDS011;7545;52.092;7.006;2022-09-29T07:53:49;14.60;;;9.50;;
14907;SDS011;7545;52.092;7.006;2022-09-29T07:56:19;13.00;;;10.17;;
14907;SDS011;7545;52.092;7.006;2022-09-29T07:58:46;14.27;;;10.60;;
14907;SDS011;7545;52.092;7.006;2022-09-29T08:01:13;13.23;;;10.63;;
14907;SDS011;7545;52.092;7.006;2022-09-29T08:03:40;12.93;;;10.03;;
14907;SDS011;7545;52.092;7.006;2022-09-29T08:06:08;14.43;;;10.80;;
14907;SDS011;7545;52.092;7.006;2022-09-29T08:08:35;13.30;;;11.00;;
14907;SDS011;7545;52.092;7.006;2022-09-29T08:11:06;13.87;;;10.83;;
14907;SDS011;7545;52.092;7.006;2022-09-29T08:13:33;16.60;;;10.33;;
14907;SDS011;7545;52.092;7.006;2022-09-29T08:16:00;14.87;;;10.57;;
14907;SDS011;7545;52.092;7.006;2022-09-29T08:18:28;17.03;;;11.13;;
14907;SDS011;7545;52.092;7.006;2022-09-29T08:20:55;16.73;;;11.10;;
14907;SDS011;7545;52.092;7.006;2022-09-29T08:23:20;12.87;;;10.47;;
14907;SDS011;7545;52.092;7.006;2022-09-29T08:25:47;16.37;;;10.33;;
14907;SDS011;7545;52.092;7.006;2022-09-29T08:28:13;12.57;;;10.63;;
14907;SDS011;7545;52.092;7.006;2022-09-29T08:30:39;16.60;;;10.27;;
14907;SDS011;7545;52.092;7.006;2022-09-29T08:33:05;11.90;;;10.47;;
14907;SDS011;7545;52.092;7.006;2022-09-29T08:35:36;11.20;;;9.60;;
14907;SDS011;7545;52.092;7.006;2022-09-29T08:38:02;11.77;;;10.13;;
14907;SDS011;7545;52.092;7.006;2022-09-29T08:40:28;13.38;;;9.20;;
14907;SDS011;7545;52.092;7.006;2022-09-29T08:45:38;12.20;;;9.63;;
14907;SDS011;7545;52.092;7.006;2022-09-29T08:48:19;13.15;;;10.68;;
14907;SDS011;7545;52.092;7.006;2022-09-29T08:51:04;13.52;;;9.70;;
14907;SDS011;7545;52.092;7.006;2022-09-29T08:53:33;13.25;;;10.43;;
14907;SDS011;7545;52.092;7.006;2022-09-29T08:56:03;12.10;;;8.85;;
14907;SDS011;7545;52.092;7.006;2022-09-29T08:58:33;14.07;;;8.85;;
14907;SDS011;7545;52.092;7.006;2022-09-29T09:07:07;14.87;;;8.70;;
14907;SDS011;7545;52.092;7.006;2022-09-29T09:09:46;12.32;;;9.32;;
14907;SDS011;7545;52.092;7.006;2022-09-29T09:24:04;12.95;;;10.60;;
14907;SDS011;7545;52.092;7.006;2022-09-29T09:29:56;10.70;;;9.32;;
14907;SDS011;7545;52.092;7.006;2022-09-29T09:34:54;10.70;;;9.60;;
14907;SDS011;7545;52.092;7.006;2022-09-29T09:37:31;14.50;;;11.10;;
14907;SDS011;7545;52.092;7.006;2022-09-29T09:40:12;12.93;;;9.57;;
14907;SDS011;7545;52.092;7.006;2022-09-29T09:42:53;11.70;;;9.55;;
14907;SDS011;7545;52.092;7.006;2022-09-29T09:45:33;12.75;;;9.75;;
14907;SDS011;7545;52.092;7.006;2022-09-29T09:48:08;11.00;;;9.43;;
14907;SDS011;7545;52.092;7.006;2022-09-29T09:50:40;11.52;;;10.32;;
14907;SDS011;7545;52.092;7.006;2022-09-29T09:56:32;11.05;;;9.10;;
14907;SDS011;7545;52.092;7.006;2022-09-29T10:01:39;12.77;;;9.13;;
14907;SDS011;7545;52.092;7.006;2022-09-29T10:04:04;13.00;;;9.27;;
14907;SDS011;7545;52.092;7.006;2022-09-29T10:06:30;11.90;;;9.75;;
14907;SDS011;7545;52.092;7.006;2022-09-29T10:08:57;10.07;;;8.98;;
14907;SDS011;7545;52.092;7.006;2022-09-29T10:11:27;10.70;;;8.38;;
14907;SDS011;7545;52.092;7.006;2022-09-29T10:17:04;11.52;;;8.68;;
14907;SDS011;7545;52.092;7.006;2022-09-29T10:22:20;12.45;;;8.13;;
14907;SDS011;7545;52.092;7.006;2022-09-29T10:24:46;14.45;;;9.23;;
14907;SDS011;7545;52.092;7.006;2022-09-29T10:27:19;12.55;;;8.93;;
14907;SDS011;7545;52.092;7.006;2022-09-29T10:29:47;9.18;;;8.10;;
14907;SDS011;7545;52.092;7.006;2022-09-29T10:34:46;12.40;;;7.65;;
14907;SDS011;7545;52.092;7.006;2022-09-29T10:37:29;8.32;;;7.32;;
14907;SDS011;7545;52.092;7.006;2022-09-29T10:42:35;7.05;;;5.95;;
14907;SDS011;7545;52.092;7.006;2022-09-29T10:45:14;8.88;;;6.85;;
14907;SDS011;7545;52.092;7.006;2022-09-29T10:47:46;7.55;;;6.47;;
14907;SDS011;7545;52.092;7.006;2022-09-29T10:50:25;7.07;;;5.47;;
14907;SDS011;7545;52.092;7.006;2022-09-29T10:52:57;7.50;;;5.38;;
14907;SDS011;7545;52.092;7.006;2022-09-29T10:55:32;6.88;;;4.90;;
14907;SDS011;7545;52.092;7.006;2022-09-29T10:58:00;5.63;;;4.07;;
14907;SDS011;7545;52.092;7.006;2022-09-29T11:00:43;6.13;;;4.85;;
14907;SDS011;7545;52.092;7.006;2022-09-29T11:03:26;6.38;;;4.35;;
14907;SDS011;7545;52.092;7.006;2022-09-29T11:08:19;3.85;;;3.55;;
14907;SDS011;7545;52.092;7.006;2022-09-29T11:10:52;7.72;;;3.30;;
14907;SDS011;7545;52.092;7.006;2022-09-29T11:13:34;5.35;;;3.45;;
14907;SDS011;7545;52.092;7.006;2022-09-29T11:16:13;5.68;;;4.15;;
14907;SDS011;7545;52.092;7.006;2022-09-29T11:18:47;5.57;;;3.95;;
14907;SDS011;7545;52.092;7.006;2022-09-29T11:24:07;5.55;;;3.30;;
14907;SDS011;7545;52.092;7.006;2022-09-29T11:26:58;3.20;;;2.90;;
14907;SDS011;7545;52.092;7.006;2022-09-29T11:46:05;3.90;;;3.42;;
14907;SDS011;7545;52.092;7.006;2022-09-29T12:02:25;3.25;;;2.13;;
14907;SDS011;7545;52.092;7.006;2022-09-29T12:05:19;2.60;;;2.38;;
14907;SDS011;7545;52.092;7.006;2022-09-29T12:08:01;1.83;;;1.42;;
14907;SDS011;7545;52.092;7.006;2022-09-29T12:10:36;3.50;;;2.30;;
14907;SDS011;7545;52.092;7.006;2022-09-29T12:15:54;6.22;;;1.88;;
14907;SDS011;7545;52.092;7.006;2022-09-29T12:18:31;3.33;;;1.98;;
14907;SDS011;7545;52.092;7.006;2022-09-29T12:21:09;5.97;;;2.70;;
14907;SDS011;7545;52.092;7.006;2022-09-29T12:23:37;4.75;;;2.20;;
14907;SDS011;7545;52.092;7.006;2022-09-29T12:26:06;3.42;;;1.90;;
14907;SDS011;7545;52.092;7.006;2022-09-29T12:31:26;1.77;;;1.67;;
14907;SDS011;7545;52.092;7.006;2022-09-29T12:45:06;2.05;;;1.85;;
14907;SDS011;7545;52.092;7.006;2022-09-29T12:52:59;3.78;;;1.90;;
14907;SDS011;7545;52.092;7.006;2022-09-29T12:55:36;3.55;;;1.98;;
14907;SDS011;7545;52.092;7.006;2022-09-29T12:58:41;1.98;;;1.73;;
14907;SDS011;7545;52.092;7.006;2022-09-29T13:09:01;2.33;;;1.92;;
14907;SDS011;7545;52.092;7.006;2022-09-29T13:23:24;3.95;;;1.60;;
14907;SDS011;7545;52.092;7.006;2022-09-29T13:26:25;3.95;;;1.48;;
14907;SDS011;7545;52.092;7.006;2022-09-29T13:29:00;1.02;;;0.95;;
14907;SDS011;7545;52.092;7.006;2022-09-29T13:31:34;2.35;;;1.10;;
14907;SDS011;7545;52.092;7.006;2022-09-29T13:34:02;1.80;;;1.60;;
14907;SDS011;7545;52.092;7.006;2022-09-29T13:38:59;3.10;;;1.48;;
14907;SDS011;7545;52.092;7.006;2022-09-29T13:46:26;4.55;;;1.60;;
14907;SDS011;7545;52.092;7.006;2022-09-29T13:51:48;3.15;;;1.83;;
14907;SDS011;7545;52.092;7.006;2022-09-29T13:54:28;3.20;;;1.63;;
14907;SDS011;7545;52.092;7.006;2022-09-29T14:05:03;1.42;;;1.30;;
14907;SDS011;7545;52.092;7.006;2022-09-29T14:10:31;5.05;;;1.75;;
14907;SDS011;7545;52.092;7.006;2022-09-29T14:13:18;2.03;;;1.58;;
14907;SDS011;7545;52.092;7.006;2022-09-29T14:21:46;1.70;;;1.40;;
14907;SDS011;7545;52.092;7.006;2022-09-29T14:32:38;3.92;;;1.30;;
14907;SDS011;7545;52.092;7.006;2022-09-29T14:35:39;2.75;;;1.50;;
14907;SDS011;7545;52.092;7.006;2022-09-29T14:40:53;2.05;;;1.30;;
14907;SDS011;7545;52.092;7.006;2022-09-29T14:43:25;2.47;;;1.20;;
14907;SDS011;7545;52.092;7.006;2022-09-29T14:55:27;2.30;;;1.00;;
14907;SDS011;7545;52.092;7.006;2022-09-29T15:04:04;1.20;;;1.10;;
14907;SDS011;7545;52.092;7.006;2022-09-29T15:06:46;1.40;;;1.23;;
14907;SDS011;7545;52.092;7.006;2022-09-29T15:25:07;1.45;;;1.30;;
14907;SDS011;7545;52.092;7.006;2022-09-29T15:27:46;1.80;;;1.20;;
14907;SDS011;7545;52.092;7.006;2022-09-29T15:30:16;1.83;;;1.10;;
14907;SDS011;7545;52.092;7.006;2022-09-29T15:32:44;4.75;;;1.30;;
14907;SDS011;7545;52.092;7.006;2022-09-29T15:35:14;3.72;;;1.63;;
14907;SDS011;7545;52.092;7.006;2022-09-29T15:40:13;4.15;;;2.40;;
14907;SDS011;7545;52.092;7.006;2022-09-29T15:42:44;1.70;;;1.30;;
14907;SDS011;7545;52.092;7.006;2022-09-29T15:45:21;3.58;;;1.45;;
14907;SDS011;7545;52.092;7.006;2022-09-29T15:47:57;1.85;;;1.35;;
14907;SDS011;7545;52.092;7.006;2022-09-29T15:50:30;1.55;;;1.42;;
14907;SDS011;7545;52.092;7.006;2022-09-29T15:52:59;1.70;;;1.27;;
14907;SDS011;7545;52.092;7.006;2022-09-29T15:55:28;2.17;;;1.65;;
14907;SDS011;7545;52.092;7.006;2022-09-29T15:57:55;1.40;;;1.30;;
14907;SDS011;7545;52.092;7.006;2022-09-29T16:03:03;2.45;;;1.40;;
14907;SDS011;7545;52.092;7.006;2022-09-29T16:05:40;3.50;;;1.40;;
14907;SDS011;7545;52.092;7.006;2022-09-29T16:08:15;1.98;;;1.58;;
14907;SDS011;7545;52.092;7.006;2022-09-29T16:11:00;2.92;;;1.27;;
14907;SDS011;7545;52.092;7.006;2022-09-29T16:13:32;1.80;;;1.50;;
14907;SDS011;7545;52.092;7.006;2022-09-29T16:16:05;1.52;;;1.33;;
14907;SDS011;7545;52.092;7.006;2022-09-29T16:21:03;1.48;;;1.30;;
14907;SDS011;7545;52.092;7.006;2022-09-29T16:26:19;2.85;;;1.70;;
14907;SDS011;7545;52.092;7.006;2022-09-29T16:31:35;2.92;;;1.90;;
14907;SDS011;7545;52.092;7.006;2022-09-29T16:34:18;5.85;;;2.85;;
14907;SDS011;7545;52.092;7.006;2022-09-29T16:36:49;2.97;;;2.55;;
14907;SDS011;7545;52.092;7.006;2022-09-29T16:39:16;4.72;;;2.70;;
14907;SDS011;7545;52.092;7.006;2022-09-29T16:41:48;2.47;;;2.13;;
14907;SDS011;7545;52.092;7.006;2022-09-29T16:44:22;1.88;;;1.70;;
14907;SDS011;7545;52.092;7.006;2022-09-29T16:46:54;2.92;;;2.20;;
14907;SDS011;7545;52.092;7.006;2022-09-29T16:49:30;4.47;;;3.90;;
14907;SDS011;7545;52.092;7.006;2022-09-29T16:52:14;6.90;;;4.53;;
14907;SDS011;7545;52.092;7.006;2022-09-29T16:57:58;6.38;;;4.82;;
14907;SDS011;7545;52.092;7.006;2022-09-29T17:00:26;3.72;;;3.17;;
14907;SDS011;7545;52.092;7.006;2022-09-29T17:02:53;2.47;;;1.80;;
14907;SDS011;7545;52.092;7.006;2022-09-29T17:05:19;1.73;;;1.50;;
14907;SDS011;7545;52.092;7.006;2022-09-29T17:07:46;1.38;;;1.27;;
14907;SDS011;7545;52.092;7.006;2022-09-29T17:10:19;1.92;;;1.38;;
14907;SDS011;7545;52.092;7.006;2022-09-29T17:12:45;2.47;;;1.75;;
14907;SDS011;7545;52.092;7.006;2022-09-29T17:15:15;2.38;;;2.15;;
14907;SDS011;7545;52.092;7.006;2022-09-29T17:17:45;5.18;;;2.92;;
14907;SDS011;7545;52.092;7.006;2022-09-29T17:20:13;3.00;;;1.63;;
14907;SDS011;7545;52.092;7.006;2022-09-29T17:22:41;2.53;;;1.60;;
14907;SDS011;7545;52.092;7.006;2022-09-29T17:25:07;2.33;;;1.60;;
14907;SDS011;7545;52.092;7.006;2022-09-29T17:27:34;3.72;;;1.70;;
14907;SDS011;7545;52.092;7.006;2022-09-29T17:30:19;2.75;;;1.42;;
14907;SDS011;7545;52.092;7.006;2022-09-29T17:32:57;3.45;;;1.65;;
14907;SDS011;7545;52.092;7.006;2022-09-29T17:35:24;2.15;;;1.60;;
14907;SDS011;7545;52.092;7.006;2022-09-29T17:37:52;2.00;;;1.80;;
14907;SDS011;7545;52.092;7.006;2022-09-29T17:42:54;2.97;;;2.63;;
14907;SDS011;7545;52.092;7.006;2022-09-29T17:45:23;4.55;;;2.75;;
14907;SDS011;7545;52.092;7.006;2022-09-29T17:47:49;6.30;;;2.80;;
14907;SDS011;7545;52.092;7.006;2022-09-29T17:50:23;2.85;;;2.47;;
14907;SDS011;7545;52.092;7.006;2022-09-29T17:52:55;6.18;;;2.95;;
14907;SDS011;7545;52.092;7.006;2022-09-29T17:55:22;4.35;;;2.92;;
14907;SDS011;7545;52.092;7.006;2022-09-29T17:57:48;6.28;;;4.47;;
14907;SDS011;7545;52.092;7.006;2022-09-29T18:00:17;4.70;;;4.30;;
14907;SDS011;7545;52.092;7.006;2022-09-29T18:02:46;7.10;;;4.60;;
14907;SDS011;7545;52.092;7.006;2022-09-29T18:05:12;7.78;;;5.68;;
14907;SDS011;7545;52.092;7.006;2022-09-29T18:07:38;8.95;;;5.43;;
14907;SDS011;7545;52.092;7.006;2022-09-29T18:11:04;8.00;;;5.65;;
14907;SDS011;7545;52.092;7.006;2022-09-29T18:13:18;8.32;;;5.93;;
14907;SDS011;7545;52.092;7.006;2022-09-29T18:15:44;8.98;;;5.22;;
14907;SDS011;7545;52.092;7.006;2022-09-29T18:18:12;4.75;;;4.28;;
14907;SDS011;7545;52.092;7.006;2022-09-29T18:20:42;4.95;;;3.83;;
14907;SDS011;7545;52.092;7.006;2022-09-29T18:23:10;4.60;;;4.03;;
14907;SDS011;7545;52.092;7.006;2022-09-29T18:25:37;6.45;;;4.55;;
14907;SDS011;7545;52.092;7.006;2022-09-29T18:28:03;5.00;;;3.75;;
14907;SDS011;7545;52.092;7.006;2022-09-29T18:30:29;7.07;;;4.10;;
14907;SDS011;7545;52.092;7.006;2022-09-29T18:32:58;4.03;;;3.50;;
14907;SDS011;7545;52.092;7.006;2022-09-29T18:35:28;5.68;;;4.63;;
14907;SDS011;7545;52.092;7.006;2022-09-29T18:37:55;8.25;;;6.22;;
14907;SDS011;7545;52.092;7.006;2022-09-29T18:40:22;11.10;;;9.68;;
14907;SDS011;7545;52.092;7.006;2022-09-29T18:42:49;19.65;;;16.60;;
14907;SDS011;7545;52.092;7.006;2022-09-29T18:45:18;23.70;;;19.27;;
14907;SDS011;7545;52.092;7.006;2022-09-29T18:47:47;18.75;;;16.58;;
14907;SDS011;7545;52.092;7.006;2022-09-29T18:50:14;18.90;;;14.90;;
14907;SDS011;7545;52.092;7.006;2022-09-29T18:52:43;18.13;;;14.73;;
14907;SDS011;7545;52.092;7.006;2022-09-29T18:55:11;18.50;;;14.70;;
14907;SDS011;7545;52.092;7.006;2022-09-29T18:57:37;20.65;;;14.43;;
14907;SDS011;7545;52.092;7.006;2022-09-29T19:00:04;17.98;;;13.90;;
14907;SDS011;7545;52.092;7.006;2022-09-29T19:02:34;18.45;;;14.30;;
14907;SDS011;7545;52.092;7.006;2022-09-29T19:05:00;21.70;;;16.88;;
14907;SDS011;7545;52.092;7.006;2022-09-29T19:07:26;20.20;;;16.23;;
14907;SDS011;7545;52.092;7.006;2022-09-29T19:09:51;21.63;;;16.83;;
14907;SDS011;7545;52.092;7.006;2022-09-29T19:12:17;19.10;;;13.93;;
14907;SDS011;7545;52.092;7.006;2022-09-29T19:14:50;29.23;;;16.38;;
14907;SDS011;7545;52.092;7.006;2022-09-29T19:17:16;33.03;;;19.65;;
14907;SDS011;7545;52.092;7.006;2022-09-29T19:19:41;28.48;;;17.35;;
14907;SDS011;7545;52.092;7.006;2022-09-29T19:22:07;31.00;;;16.50;;